Terminal Aerodrome Forecast
Issued by NWS Sioux Falls, SD

Home | Current Version | Previous Version | Text Only | Print | Product List | Glossary Off
Versions: 1 2 3 4 5 6 7 8 9 10 11 12 13 14 15 16 17

000
FTUS43 KFSD 250705 AAA
TAFHON
TAF AMD
KHON 250705Z 2507/2606 VRB04KT 6SM BR SCT005 OVC012
      TEMPO 2507/2508 BKN005
     FM250800 VRB03KT 4SM BR OVC006
     FM251000 34002KT 2SM BR OVC004
     FM251500 01008KT 4SM BR OVC008
     FM251800 35008KT P6SM OVC015
     FM252000 19008KT P6SM VCTS OVC050CB=

USA.gov is the U.S. government's official web portal to all federal, state and local government web resources and services.